sensor_id;sensor_type;location;lat;lon;timestamp;P1;durP1;ratioP1;P2;durP2;ratioP2
21215;SDS011;10765;50.954;5.322;2023-06-19T00:00:17;4.37;;;4.00;;
21215;SDS011;10765;50.954;5.322;2023-06-19T00:02:45;4.10;;;3.80;;
21215;SDS011;10765;50.954;5.322;2023-06-19T00:05:12;4.20;;;3.80;;
21215;SDS011;10765;50.954;5.322;2023-06-19T00:07:40;4.53;;;4.13;;
21215;SDS011;10765;50.954;5.322;2023-06-19T00:10:07;6.00;;;4.07;;
21215;SDS011;10765;50.954;5.322;2023-06-19T00:12:34;4.70;;;4.30;;
21215;SDS011;10765;50.954;5.322;2023-06-19T00:15:02;4.70;;;4.30;;
21215;SDS011;10765;50.954;5.322;2023-06-19T00:17:29;4.47;;;4.07;;
21215;SDS011;10765;50.954;5.322;2023-06-19T00:19:56;5.03;;;3.93;;
21215;SDS011;10765;50.954;5.322;2023-06-19T00:22:22;5.43;;;4.80;;
21215;SDS011;10765;50.954;5.322;2023-06-19T00:24:52;5.00;;;4.50;;
21215;SDS011;10765;50.954;5.322;2023-06-19T00:27:19;4.80;;;4.30;;
21215;SDS011;10765;50.954;5.322;2023-06-19T00:29:46;4.63;;;4.13;;
21215;SDS011;10765;50.954;5.322;2023-06-19T00:32:13;4.20;;;3.87;;
21215;SDS011;10765;50.954;5.322;2023-06-19T00:34:40;4.83;;;4.37;;
21215;SDS011;10765;50.954;5.322;2023-06-19T00:37:08;4.97;;;4.23;;
21215;SDS011;10765;50.954;5.322;2023-06-19T00:39:38;5.37;;;4.87;;
21215;SDS011;10765;50.954;5.322;2023-06-19T00:42:06;4.77;;;4.33;;
21215;SDS011;10765;50.954;5.322;2023-06-19T00:44:33;4.30;;;3.93;;
21215;SDS011;10765;50.954;5.322;2023-06-19T00:47:01;4.53;;;4.13;;
21215;SDS011;10765;50.954;5.322;2023-06-19T00:49:30;4.53;;;3.93;;
21215;SDS011;10765;50.954;5.322;2023-06-19T00:51:57;4.97;;;4.27;;
21215;SDS011;10765;50.954;5.322;2023-06-19T00:54:24;4.70;;;4.30;;
21215;SDS011;10765;50.954;5.322;2023-06-19T00:56:51;5.20;;;4.70;;
21215;SDS011;10765;50.954;5.322;2023-06-19T00:59:20;4.50;;;4.10;;
21215;SDS011;10765;50.954;5.322;2023-06-19T01:01:47;4.77;;;4.33;;
21215;SDS011;10765;50.954;5.322;2023-06-19T01:04:14;4.47;;;4.07;;
21215;SDS011;10765;50.954;5.322;2023-06-19T01:06:44;5.00;;;4.50;;
21215;SDS011;10765;50.954;5.322;2023-06-19T01:09:17;4.50;;;4.10;;
21215;SDS011;10765;50.954;5.322;2023-06-19T01:11:47;4.70;;;4.20;;
21215;SDS011;10765;50.954;5.322;2023-06-19T01:14:21;3.97;;;3.67;;
21215;SDS011;10765;50.954;5.322;2023-06-19T01:16:51;4.50;;;4.13;;
21215;SDS011;10765;50.954;5.322;2023-06-19T01:19:19;4.43;;;4.03;;
21215;SDS011;10765;50.954;5.322;2023-06-19T01:21:47;4.20;;;3.90;;
21215;SDS011;10765;50.954;5.322;2023-06-19T01:24:16;4.00;;;3.70;;
21215;SDS011;10765;50.954;5.322;2023-06-19T01:26:43;4.13;;;3.70;;
21215;SDS011;10765;50.954;5.322;2023-06-19T01:29:11;3.97;;;3.57;;
21215;SDS011;10765;50.954;5.322;2023-06-19T01:31:42;4.27;;;3.90;;
21215;SDS011;10765;50.954;5.322;2023-06-19T01:34:15;4.23;;;3.83;;
21215;SDS011;10765;50.954;5.322;2023-06-19T01:36:46;4.13;;;3.83;;
21215;SDS011;10765;50.954;5.322;2023-06-19T01:39:14;4.70;;;3.83;;
21215;SDS011;10765;50.954;5.322;2023-06-19T01:41:44;4.50;;;3.93;;
21215;SDS011;10765;50.954;5.322;2023-06-19T01:44:12;4.97;;;4.23;;
21215;SDS011;10765;50.954;5.322;2023-06-19T01:46:39;5.03;;;3.80;;
21215;SDS011;10765;50.954;5.322;2023-06-19T01:49:07;3.87;;;3.57;;
21215;SDS011;10765;50.954;5.322;2023-06-19T01:51:35;3.90;;;3.50;;
21215;SDS011;10765;50.954;5.322;2023-06-19T01:54:02;4.40;;;3.63;;
21215;SDS011;10765;50.954;5.322;2023-06-19T01:56:31;4.63;;;3.30;;
21215;SDS011;10765;50.954;5.322;2023-06-19T01:58:58;3.70;;;3.40;;
21215;SDS011;10765;50.954;5.322;2023-06-19T02:01:25;4.57;;;4.07;;
21215;SDS011;10765;50.954;5.322;2023-06-19T02:03:52;4.67;;;3.70;;
21215;SDS011;10765;50.954;5.322;2023-06-19T02:06:19;5.17;;;3.90;;
21215;SDS011;10765;50.954;5.322;2023-06-19T02:08:47;3.87;;;3.57;;
21215;SDS011;10765;50.954;5.322;2023-06-19T02:11:14;5.10;;;3.60;;
21215;SDS011;10765;50.954;5.322;2023-06-19T02:13:42;3.97;;;3.57;;
21215;SDS011;10765;50.954;5.322;2023-06-19T02:16:09;3.97;;;3.53;;
21215;SDS011;10765;50.954;5.322;2023-06-19T02:18:36;4.47;;;3.83;;
21215;SDS011;10765;50.954;5.322;2023-06-19T02:21:03;4.30;;;3.87;;
21215;SDS011;10765;50.954;5.322;2023-06-19T02:23:30;4.07;;;3.67;;
21215;SDS011;10765;50.954;5.322;2023-06-19T02:25:57;3.87;;;3.57;;
21215;SDS011;10765;50.954;5.322;2023-06-19T02:28:24;4.07;;;3.70;;
21215;SDS011;10765;50.954;5.322;2023-06-19T02:30:52;3.87;;;3.57;;
21215;SDS011;10765;50.954;5.322;2023-06-19T02:33:19;4.33;;;3.93;;
21215;SDS011;10765;50.954;5.322;2023-06-19T02:35:46;4.47;;;4.07;;
21215;SDS011;10765;50.954;5.322;2023-06-19T02:38:13;6.60;;;4.00;;
21215;SDS011;10765;50.954;5.322;2023-06-19T02:40:40;5.93;;;3.97;;
21215;SDS011;10765;50.954;5.322;2023-06-19T02:43:07;4.30;;;3.77;;
21215;SDS011;10765;50.954;5.322;2023-06-19T02:45:34;4.70;;;4.30;;
21215;SDS011;10765;50.954;5.322;2023-06-19T02:48:02;5.37;;;3.83;;
21215;SDS011;10765;50.954;5.322;2023-06-19T02:50:29;3.97;;;3.67;;
21215;SDS011;10765;50.954;5.322;2023-06-19T02:52:56;4.37;;;3.97;;
21215;SDS011;10765;50.954;5.322;2023-06-19T02:55:23;4.57;;;3.77;;
21215;SDS011;10765;50.954;5.322;2023-06-19T02:57:50;4.13;;;3.83;;
21215;SDS011;10765;50.954;5.322;2023-06-19T03:00:17;4.40;;;3.97;;
21215;SDS011;10765;50.954;5.322;2023-06-19T03:02:44;4.47;;;4.03;;
21215;SDS011;10765;50.954;5.322;2023-06-19T03:05:14;6.20;;;3.70;;
21215;SDS011;10765;50.954;5.322;2023-06-19T03:07:42;4.47;;;4.00;;
21215;SDS011;10765;50.954;5.322;2023-06-19T03:10:09;4.90;;;4.10;;
21215;SDS011;10765;50.954;5.322;2023-06-19T03:12:36;4.77;;;4.37;;
21215;SDS011;10765;50.954;5.322;2023-06-19T03:15:03;4.10;;;3.70;;
21215;SDS011;10765;50.954;5.322;2023-06-19T03:17:30;3.73;;;3.43;;
21215;SDS011;10765;50.954;5.322;2023-06-19T03:19:57;4.70;;;3.80;;
21215;SDS011;10765;50.954;5.322;2023-06-19T03:22:26;5.50;;;4.00;;
21215;SDS011;10765;50.954;5.322;2023-06-19T03:24:52;4.83;;;3.77;;
21215;SDS011;10765;50.954;5.322;2023-06-19T03:27:19;4.00;;;3.60;;
21215;SDS011;10765;50.954;5.322;2023-06-19T03:29:46;4.40;;;3.90;;
21215;SDS011;10765;50.954;5.322;2023-06-19T03:32:13;4.40;;;4.00;;
21215;SDS011;10765;50.954;5.322;2023-06-19T03:34:40;4.60;;;4.20;;
21215;SDS011;10765;50.954;5.322;2023-06-19T03:37:08;4.10;;;3.73;;
21215;SDS011;10765;50.954;5.322;2023-06-19T03:39:36;4.53;;;3.80;;
21215;SDS011;10765;50.954;5.322;2023-06-19T03:42:03;4.37;;;3.97;;
21215;SDS011;10765;50.954;5.322;2023-06-19T03:44:31;4.57;;;4.17;;
21215;SDS011;10765;50.954;5.322;2023-06-19T03:46:58;4.93;;;3.70;;
21215;SDS011;10765;50.954;5.322;2023-06-19T03:49:25;5.30;;;3.80;;
21215;SDS011;10765;50.954;5.322;2023-06-19T03:51:52;4.83;;;3.80;;
21215;SDS011;10765;50.954;5.322;2023-06-19T03:54:19;4.40;;;3.87;;
21215;SDS011;10765;50.954;5.322;2023-06-19T03:56:48;4.23;;;3.80;;
21215;SDS011;10765;50.954;5.322;2023-06-19T03:59:15;3.80;;;3.40;;
21215;SDS011;10765;50.954;5.322;2023-06-19T04:01:41;4.07;;;3.70;;
21215;SDS011;10765;50.954;5.322;2023-06-19T04:04:08;5.27;;;3.80;;
21215;SDS011;10765;50.954;5.322;2023-06-19T04:06:35;4.07;;;3.40;;
21215;SDS011;10765;50.954;5.322;2023-06-19T04:09:03;4.47;;;3.90;;
21215;SDS011;10765;50.954;5.322;2023-06-19T04:11:30;4.37;;;3.97;;
21215;SDS011;10765;50.954;5.322;2023-06-19T04:13:58;4.50;;;4.10;;
21215;SDS011;10765;50.954;5.322;2023-06-19T04:16:25;6.17;;;3.90;;
21215;SDS011;10765;50.954;5.322;2023-06-19T04:18:53;4.80;;;4.30;;
21215;SDS011;10765;50.954;5.322;2023-06-19T04:21:20;5.37;;;4.87;;
21215;SDS011;10765;50.954;5.322;2023-06-19T04:23:47;4.87;;;4.37;;
21215;SDS011;10765;50.954;5.322;2023-06-19T04:26:14;5.07;;;4.57;;
21215;SDS011;10765;50.954;5.322;2023-06-19T04:28:41;4.90;;;4.50;;
21215;SDS011;10765;50.954;5.322;2023-06-19T04:31:10;6.00;;;4.93;;
21215;SDS011;10765;50.954;5.322;2023-06-19T04:33:36;5.50;;;5.00;;
21215;SDS011;10765;50.954;5.322;2023-06-19T04:36:05;5.97;;;5.20;;
21215;SDS011;10765;50.954;5.322;2023-06-19T04:38:35;6.77;;;6.17;;
21215;SDS011;10765;50.954;5.322;2023-06-19T04:41:01;6.90;;;6.30;;
21215;SDS011;10765;50.954;5.322;2023-06-19T04:43:28;7.17;;;6.30;;
21215;SDS011;10765;50.954;5.322;2023-06-19T04:45:55;8.20;;;7.40;;
21215;SDS011;10765;50.954;5.322;2023-06-19T04:48:23;7.40;;;6.70;;
21215;SDS011;10765;50.954;5.322;2023-06-19T04:50:51;8.90;;;8.00;;
21215;SDS011;10765;50.954;5.322;2023-06-19T04:53:21;8.43;;;7.67;;
21215;SDS011;10765;50.954;5.322;2023-06-19T04:55:48;7.60;;;6.90;;
21215;SDS011;10765;50.954;5.322;2023-06-19T04:58:15;8.60;;;7.83;;
21215;SDS011;10765;50.954;5.322;2023-06-19T05:00:42;8.73;;;7.93;;
21215;SDS011;10765;50.954;5.322;2023-06-19T05:03:08;9.23;;;8.40;;
21215;SDS011;10765;50.954;5.322;2023-06-19T05:05:40;9.30;;;8.50;;
21215;SDS011;10765;50.954;5.322;2023-06-19T05:08:07;10.07;;;8.90;;
21215;SDS011;10765;50.954;5.322;2023-06-19T05:10:35;9.97;;;9.07;;
21215;SDS011;10765;50.954;5.322;2023-06-19T05:13:02;11.07;;;9.43;;
21215;SDS011;10765;50.954;5.322;2023-06-19T05:15:29;9.67;;;8.87;;
21215;SDS011;10765;50.954;5.322;2023-06-19T05:17:56;9.60;;;8.70;;
21215;SDS011;10765;50.954;5.322;2023-06-19T05:20:22;9.70;;;8.80;;
21215;SDS011;10765;50.954;5.322;2023-06-19T05:22:51;10.80;;;9.80;;
21215;SDS011;10765;50.954;5.322;2023-06-19T05:25:18;11.57;;;10.13;;
21215;SDS011;10765;50.954;5.322;2023-06-19T05:27:45;10.37;;;9.37;;
21215;SDS011;10765;50.954;5.322;2023-06-19T05:30:12;10.83;;;9.93;;
21215;SDS011;10765;50.954;5.322;2023-06-19T05:32:39;10.17;;;9.20;;
21215;SDS011;10765;50.954;5.322;2023-06-19T05:35:06;9.63;;;8.50;;
21215;SDS011;10765;50.954;5.322;2023-06-19T05:37:33;9.33;;;8.53;;
21215;SDS011;10765;50.954;5.322;2023-06-19T05:40:01;8.63;;;7.77;;
21215;SDS011;10765;50.954;5.322;2023-06-19T05:42:28;9.30;;;7.60;;
21215;SDS011;10765;50.954;5.322;2023-06-19T05:44:55;7.73;;;7.07;;
21215;SDS011;10765;50.954;5.322;2023-06-19T05:47:22;7.57;;;6.73;;
21215;SDS011;10765;50.954;5.322;2023-06-19T05:49:50;7.50;;;6.80;;
21215;SDS011;10765;50.954;5.322;2023-06-19T05:52:19;7.97;;;6.73;;
21215;SDS011;10765;50.954;5.322;2023-06-19T05:54:46;6.70;;;6.00;;
21215;SDS011;10765;50.954;5.322;2023-06-19T05:57:15;6.30;;;5.60;;
21215;SDS011;10765;50.954;5.322;2023-06-19T05:59:45;5.50;;;5.10;;
21215;SDS011;10765;50.954;5.322;2023-06-19T06:02:12;5.47;;;5.07;;
21215;SDS011;10765;50.954;5.322;2023-06-19T06:04:40;4.90;;;4.13;;
21215;SDS011;10765;50.954;5.322;2023-06-19T06:07:07;8.23;;;5.10;;
21215;SDS011;10765;50.954;5.322;2023-06-19T06:09:34;4.50;;;4.10;;
21215;SDS011;10765;50.954;5.322;2023-06-19T06:12:01;4.90;;;4.50;;
21215;SDS011;10765;50.954;5.322;2023-06-19T06:14:29;5.13;;;4.63;;
21215;SDS011;10765;50.954;5.322;2023-06-19T06:16:56;6.23;;;4.40;;
21215;SDS011;10765;50.954;5.322;2023-06-19T06:19:23;4.93;;;4.53;;
21215;SDS011;10765;50.954;5.322;2023-06-19T06:21:51;4.83;;;4.43;;
21215;SDS011;10765;50.954;5.322;2023-06-19T06:24:18;4.73;;;4.33;;
21215;SDS011;10765;50.954;5.322;2023-06-19T06:26:44;4.77;;;4.33;;
21215;SDS011;10765;50.954;5.322;2023-06-19T06:29:11;4.67;;;4.17;;
21215;SDS011;10765;50.954;5.322;2023-06-19T06:31:40;4.63;;;4.23;;
21215;SDS011;10765;50.954;5.322;2023-06-19T06:34:06;4.77;;;4.37;;
21215;SDS011;10765;50.954;5.322;2023-06-19T06:36:33;5.30;;;4.90;;
21215;SDS011;10765;50.954;5.322;2023-06-19T06:39:00;5.27;;;4.50;;
21215;SDS011;10765;50.954;5.322;2023-06-19T06:41:27;7.87;;;4.00;;
21215;SDS011;10765;50.954;5.322;2023-06-19T06:43:54;5.47;;;4.97;;
21215;SDS011;10765;50.954;5.322;2023-06-19T06:46:21;5.40;;;4.90;;
21215;SDS011;10765;50.954;5.322;2023-06-19T06:48:50;6.07;;;5.00;;
21215;SDS011;10765;50.954;5.322;2023-06-19T06:51:17;6.20;;;5.30;;
21215;SDS011;10765;50.954;5.322;2023-06-19T06:53:47;5.70;;;5.20;;
21215;SDS011;10765;50.954;5.322;2023-06-19T06:56:14;5.33;;;4.70;;
21215;SDS011;10765;50.954;5.322;2023-06-19T06:58:41;5.90;;;5.47;;
21215;SDS011;10765;50.954;5.322;2023-06-19T07:01:08;5.23;;;4.77;;
21215;SDS011;10765;50.954;5.322;2023-06-19T07:03:35;6.17;;;5.60;;
21215;SDS011;10765;50.954;5.322;2023-06-19T07:06:04;5.73;;;5.23;;
21215;SDS011;10765;50.954;5.322;2023-06-19T07:08:30;5.03;;;4.63;;
21215;SDS011;10765;50.954;5.322;2023-06-19T07:10:58;7.17;;;5.27;;
21215;SDS011;10765;50.954;5.322;2023-06-19T07:13:25;6.87;;;5.00;;
21215;SDS011;10765;50.954;5.322;2023-06-19T07:15:53;6.13;;;5.20;;
21215;SDS011;10765;50.954;5.322;2023-06-19T07:18:20;5.87;;;5.30;;
21215;SDS011;10765;50.954;5.322;2023-06-19T07:20:47;5.70;;;5.10;;
21215;SDS011;10765;50.954;5.322;2023-06-19T07:23:15;5.30;;;4.83;;
21215;SDS011;10765;50.954;5.322;2023-06-19T07:25:42;6.57;;;5.87;;
21215;SDS011;10765;50.954;5.322;2023-06-19T07:28:12;5.57;;;5.07;;
21215;SDS011;10765;50.954;5.322;2023-06-19T07:30:39;5.90;;;5.40;;
21215;SDS011;10765;50.954;5.322;2023-06-19T07:33:06;6.90;;;6.17;;
21215;SDS011;10765;50.954;5.322;2023-06-19T07:35:33;7.33;;;6.67;;
21215;SDS011;10765;50.954;5.322;2023-06-19T07:38:00;6.70;;;6.10;;
21215;SDS011;10765;50.954;5.322;2023-06-19T07:40:28;6.63;;;6.07;;
21215;SDS011;10765;50.954;5.322;2023-06-19T07:42:55;6.50;;;5.90;;
21215;SDS011;10765;50.954;5.322;2023-06-19T07:45:22;7.70;;;6.07;;
21215;SDS011;10765;50.954;5.322;2023-06-19T07:47:53;6.03;;;5.53;;
21215;SDS011;10765;50.954;5.322;2023-06-19T07:50:21;6.50;;;6.00;;
21215;SDS011;10765;50.954;5.322;2023-06-19T07:52:48;7.30;;;6.70;;
21215;SDS011;10765;50.954;5.322;2023-06-19T07:55:15;7.60;;;6.90;;
21215;SDS011;10765;50.954;5.322;2023-06-19T07:57:43;7.33;;;6.63;;
21215;SDS011;10765;50.954;5.322;2023-06-19T08:00:10;7.20;;;6.60;;
21215;SDS011;10765;50.954;5.322;2023-06-19T08:02:38;6.87;;;6.27;;
21215;SDS011;10765;50.954;5.322;2023-06-19T08:05:06;7.63;;;7.03;;
21215;SDS011;10765;50.954;5.322;2023-06-19T08:07:34;8.33;;;7.53;;
21215;SDS011;10765;50.954;5.322;2023-06-19T08:10:01;7.27;;;6.57;;
21215;SDS011;10765;50.954;5.322;2023-06-19T08:12:29;7.07;;;6.47;;
21215;SDS011;10765;50.954;5.322;2023-06-19T08:14:57;6.53;;;5.90;;
21215;SDS011;10765;50.954;5.322;2023-06-19T08:17:24;6.37;;;5.77;;
21215;SDS011;10765;50.954;5.322;2023-06-19T08:19:51;5.97;;;5.33;;
21215;SDS011;10765;50.954;5.322;2023-06-19T08:22:18;6.33;;;5.70;;
21215;SDS011;10765;50.954;5.322;2023-06-19T08:24:44;7.00;;;6.40;;
21215;SDS011;10765;50.954;5.322;2023-06-19T08:27:11;7.53;;;6.30;;
21215;SDS011;10765;50.954;5.322;2023-06-19T08:29:38;6.23;;;5.73;;
21215;SDS011;10765;50.954;5.322;2023-06-19T08:32:07;7.13;;;6.47;;
21215;SDS011;10765;50.954;5.322;2023-06-19T08:34:34;7.17;;;6.23;;
21215;SDS011;10765;50.954;5.322;2023-06-19T08:37:01;7.20;;;6.60;;
21215;SDS011;10765;50.954;5.322;2023-06-19T08:39:29;5.77;;;5.30;;
21215;SDS011;10765;50.954;5.322;2023-06-19T08:41:56;11.77;;;6.33;;
21215;SDS011;10765;50.954;5.322;2023-06-19T08:44:23;6.50;;;5.10;;
21215;SDS011;10765;50.954;5.322;2023-06-19T08:46:49;6.73;;;5.27;;
21215;SDS011;10765;50.954;5.322;2023-06-19T08:49:18;5.73;;;5.23;;
21215;SDS011;10765;50.954;5.322;2023-06-19T08:51:45;5.60;;;5.10;;
21215;SDS011;10765;50.954;5.322;2023-06-19T08:54:12;5.43;;;4.93;;
21215;SDS011;10765;50.954;5.322;2023-06-19T08:56:39;5.03;;;4.53;;
21215;SDS011;10765;50.954;5.322;2023-06-19T08:59:09;4.80;;;4.40;;
21215;SDS011;10765;50.954;5.322;2023-06-19T09:01:37;4.43;;;4.13;;
21215;SDS011;10765;50.954;5.322;2023-06-19T09:04:08;5.17;;;4.50;;
21215;SDS011;10765;50.954;5.322;2023-06-19T09:06:37;5.63;;;4.10;;
21215;SDS011;10765;50.954;5.322;2023-06-19T09:09:13;5.80;;;4.40;;
21215;SDS011;10765;50.954;5.322;2023-06-19T09:11:40;5.25;;;4.75;;
21215;SDS011;10765;50.954;5.322;2023-06-19T09:14:09;5.32;;;4.78;;
21215;SDS011;10765;50.954;5.322;2023-06-19T09:16:38;5.50;;;5.00;;
21215;SDS011;10765;50.954;5.322;2023-06-19T09:19:05;6.70;;;5.43;;
21215;SDS011;10765;50.954;5.322;2023-06-19T09:21:35;9.40;;;5.72;;
21215;SDS011;10765;50.954;5.322;2023-06-19T09:24:05;6.82;;;6.18;;
21215;SDS011;10765;50.954;5.322;2023-06-19T09:26:32;5.25;;;4.85;;
21215;SDS011;10765;50.954;5.322;2023-06-19T09:29:09;5.72;;;5.20;;
21215;SDS011;10765;50.954;5.322;2023-06-19T09:31:36;5.57;;;5.07;;
21215;SDS011;10765;50.954;5.322;2023-06-19T09:34:04;4.63;;;4.22;;
21215;SDS011;10765;50.954;5.322;2023-06-19T09:36:31;5.18;;;4.68;;
21215;SDS011;10765;50.954;5.322;2023-06-19T09:38:59;5.75;;;5.20;;
21215;SDS011;10765;50.954;5.322;2023-06-19T09:41:29;9.88;;;5.57;;
21215;SDS011;10765;50.954;5.322;2023-06-19T09:43:56;7.03;;;5.07;;
21215;SDS011;10765;50.954;5.322;2023-06-19T09:46:25;5.38;;;4.97;;
21215;SDS011;10765;50.954;5.322;2023-06-19T09:48:55;5.22;;;4.70;;
21215;SDS011;10765;50.954;5.322;2023-06-19T09:51:29;5.10;;;4.35;;
21215;SDS011;10765;50.954;5.322;2023-06-19T09:53:58;4.75;;;4.38;;
21215;SDS011;10765;50.954;5.322;2023-06-19T09:56:30;5.50;;;5.03;;
21215;SDS011;10765;50.954;5.322;2023-06-19T09:58:57;5.40;;;4.90;;
21215;SDS011;10765;50.954;5.322;2023-06-19T10:01:26;5.35;;;4.82;;
21215;SDS011;10765;50.954;5.322;2023-06-19T10:04:01;5.93;;;4.95;;
21215;SDS011;10765;50.954;5.322;2023-06-19T10:06:29;4.95;;;4.50;;
21215;SDS011;10765;50.954;5.322;2023-06-19T10:09:05;5.15;;;4.70;;
21215;SDS011;10765;50.954;5.322;2023-06-19T10:11:50;5.32;;;4.93;;
21215;SDS011;10765;50.954;5.322;2023-06-19T10:14:18;5.70;;;4.85;;
21215;SDS011;10765;50.954;5.322;2023-06-19T10:16:45;5.80;;;5.30;;
21215;SDS011;10765;50.954;5.322;2023-06-19T10:19:16;5.70;;;5.20;;
21215;SDS011;10765;50.954;5.322;2023-06-19T10:21:44;6.55;;;5.22;;
21215;SDS011;10765;50.954;5.322;2023-06-19T10:24:15;5.78;;;5.18;;
21215;SDS011;10765;50.954;5.322;2023-06-19T10:26:56;6.27;;;5.60;;
21215;SDS011;10765;50.954;5.322;2023-06-19T10:29:25;6.55;;;5.10;;
21215;SDS011;10765;50.954;5.322;2023-06-19T10:31:53;5.70;;;5.20;;
21215;SDS011;10765;50.954;5.322;2023-06-19T10:34:22;5.75;;;5.25;;
21215;SDS011;10765;50.954;5.322;2023-06-19T10:36:58;8.60;;;5.30;;
21215;SDS011;10765;50.954;5.322;2023-06-19T10:39:25;6.20;;;5.45;;
21215;SDS011;10765;50.954;5.322;2023-06-19T10:41:52;5.70;;;5.20;;
21215;SDS011;10765;50.954;5.322;2023-06-19T10:44:22;6.10;;;5.50;;
21215;SDS011;10765;50.954;5.322;2023-06-19T10:46:52;6.45;;;5.78;;
21215;SDS011;10765;50.954;5.322;2023-06-19T10:49:19;5.95;;;5.40;;
21215;SDS011;10765;50.954;5.322;2023-06-19T10:51:48;5.88;;;5.35;;
21215;SDS011;10765;50.954;5.322;2023-06-19T10:54:15;5.68;;;5.13;;
21215;SDS011;10765;50.954;5.322;2023-06-19T10:56:42;5.80;;;5.30;;
21215;SDS011;10765;50.954;5.322;2023-06-19T10:59:10;5.50;;;5.00;;
21215;SDS011;10765;50.954;5.322;2023-06-19T11:01:40;6.10;;;5.55;;
21215;SDS011;10765;50.954;5.322;2023-06-19T11:04:09;6.40;;;5.80;;
21215;SDS011;10765;50.954;5.322;2023-06-19T11:06:37;5.75;;;5.22;;
21215;SDS011;10765;50.954;5.322;2023-06-19T11:09:05;7.82;;;5.50;;
21215;SDS011;10765;50.954;5.322;2023-06-19T11:11:37;6.07;;;5.45;;
21215;SDS011;10765;50.954;5.322;2023-06-19T11:14:04;6.15;;;5.53;;
21215;SDS011;10765;50.954;5.322;2023-06-19T11:16:32;5.93;;;5.43;;
21215;SDS011;10765;50.954;5.322;2023-06-19T11:19:01;6.10;;;5.60;;
21215;SDS011;10765;50.954;5.322;2023-06-19T11:21:31;7.10;;;6.40;;
21215;SDS011;10765;50.954;5.322;2023-06-19T11:24:02;6.82;;;6.22;;
21215;SDS011;10765;50.954;5.322;2023-06-19T11:26:33;6.35;;;5.75;;
21215;SDS011;10765;50.954;5.322;2023-06-19T11:29:01;5.97;;;5.38;;
21215;SDS011;10765;50.954;5.322;2023-06-19T11:31:28;6.82;;;5.78;;
21215;SDS011;10765;50.954;5.322;2023-06-19T11:33:56;9.05;;;8.23;;
21215;SDS011;10765;50.954;5.322;2023-06-19T11:36:25;5.75;;;5.20;;
21215;SDS011;10765;50.954;5.322;2023-06-19T11:38:52;6.68;;;5.68;;
21215;SDS011;10765;50.954;5.322;2023-06-19T11:41:26;6.20;;;5.63;;
21215;SDS011;10765;50.954;5.322;2023-06-19T11:43:59;6.22;;;5.63;;
21215;SDS011;10765;50.954;5.322;2023-06-19T11:46:30;6.40;;;5.80;;
21215;SDS011;10765;50.954;5.322;2023-06-19T11:49:06;6.63;;;6.03;;
21215;SDS011;10765;50.954;5.322;2023-06-19T11:51:36;6.35;;;5.78;;
21215;SDS011;10765;50.954;5.322;2023-06-19T11:54:04;6.75;;;5.80;;
21215;SDS011;10765;50.954;5.322;2023-06-19T11:56:33;6.47;;;5.88;;
21215;SDS011;10765;50.954;5.322;2023-06-19T11:59:00;6.93;;;6.32;;
21215;SDS011;10765;50.954;5.322;2023-06-19T12:01:28;6.70;;;6.10;;
21215;SDS011;10765;50.954;5.322;2023-06-19T12:03:55;6.88;;;6.07;;
21215;SDS011;10765;50.954;5.322;2023-06-19T12:06:22;6.28;;;5.57;;
21215;SDS011;10765;50.954;5.322;2023-06-19T12:08:51;6.60;;;6.00;;
21215;SDS011;10765;50.954;5.322;2023-06-19T12:11:18;6.75;;;6.25;;
21215;SDS011;10765;50.954;5.322;2023-06-19T12:13:45;6.10;;;5.50;;
21215;SDS011;10765;50.954;5.322;2023-06-19T12:16:13;5.85;;;5.30;;
21215;SDS011;10765;50.954;5.322;2023-06-19T12:18:40;6.05;;;5.40;;
21215;SDS011;10765;50.954;5.322;2023-06-19T12:21:07;6.10;;;5.60;;
21215;SDS011;10765;50.954;5.322;2023-06-19T12:23:34;18.02;;;7.00;;
21215;SDS011;10765;50.954;5.322;2023-06-19T12:26:02;6.07;;;5.57;;
21215;SDS011;10765;50.954;5.322;2023-06-19T12:28:29;6.15;;;5.05;;
21215;SDS011;10765;50.954;5.322;2023-06-19T12:30:56;12.50;;;5.68;;
21215;SDS011;10765;50.954;5.322;2023-06-19T12:33:23;5.82;;;5.32;;
21215;SDS011;10765;50.954;5.322;2023-06-19T12:35:50;6.10;;;5.50;;
21215;SDS011;10765;50.954;5.322;2023-06-19T12:38:17;5.93;;;5.30;;
21215;SDS011;10765;50.954;5.322;2023-06-19T12:40:44;6.40;;;5.80;;
21215;SDS011;10765;50.954;5.322;2023-06-19T12:43:12;6.38;;;5.88;;
21215;SDS011;10765;50.954;5.322;2023-06-19T12:45:39;6.13;;;5.63;;
21215;SDS011;10765;50.954;5.322;2023-06-19T12:48:07;6.03;;;5.60;;
21215;SDS011;10765;50.954;5.322;2023-06-19T12:50:36;6.30;;;5.70;;
21215;SDS011;10765;50.954;5.322;2023-06-19T12:53:03;6.60;;;5.60;;
21215;SDS011;10765;50.954;5.322;2023-06-19T12:55:30;6.35;;;5.80;;
21215;SDS011;10765;50.954;5.322;2023-06-19T12:57:56;5.72;;;5.22;;
21215;SDS011;10765;50.954;5.322;2023-06-19T13:00:25;6.00;;;5.50;;
21215;SDS011;10765;50.954;5.322;2023-06-19T13:02:52;5.63;;;5.22;;
21215;SDS011;10765;50.954;5.322;2023-06-19T13:05:18;5.78;;;5.28;;
21215;SDS011;10765;50.954;5.322;2023-06-19T13:07:45;7.07;;;5.53;;
21215;SDS011;10765;50.954;5.322;2023-06-19T13:10:12;5.68;;;5.18;;
21215;SDS011;10765;50.954;5.322;2023-06-19T13:12:39;5.82;;;5.05;;
21215;SDS011;10765;50.954;5.322;2023-06-19T13:15:07;5.40;;;5.00;;
21215;SDS011;10765;50.954;5.322;2023-06-19T13:17:36;5.68;;;5.13;;
21215;SDS011;10765;50.954;5.322;2023-06-19T13:20:03;5.95;;;5.45;;
21215;SDS011;10765;50.954;5.322;2023-06-19T13:22:31;7.05;;;5.60;;
21215;SDS011;10765;50.954;5.322;2023-06-19T13:24:57;5.85;;;5.25;;
21215;SDS011;10765;50.954;5.322;2023-06-19T13:27:24;6.03;;;5.03;;
21215;SDS011;10765;50.954;5.322;2023-06-19T13:29:53;6.32;;;4.95;;
21215;SDS011;10765;50.954;5.322;2023-06-19T13:32:20;5.07;;;4.38;;
21215;SDS011;10765;50.954;5.322;2023-06-19T13:34:49;5.72;;;4.82;;
21215;SDS011;10765;50.954;5.322;2023-06-19T13:37:15;5.75;;;5.13;;
21215;SDS011;10765;50.954;5.322;2023-06-19T13:39:42;5.00;;;4.50;;
21215;SDS011;10765;50.954;5.322;2023-06-19T13:42:09;5.95;;;5.30;;
21215;SDS011;10765;50.954;5.322;2023-06-19T13:44:36;6.88;;;4.70;;
21215;SDS011;10765;50.954;5.322;2023-06-19T13:47:04;4.97;;;4.45;;
21215;SDS011;10765;50.954;5.322;2023-06-19T13:49:31;4.47;;;4.07;;
21215;SDS011;10765;50.954;5.322;2023-06-19T13:51:59;4.65;;;4.25;;
21215;SDS011;10765;50.954;5.322;2023-06-19T13:54:26;4.72;;;4.30;;
21215;SDS011;10765;50.954;5.322;2023-06-19T13:56:53;6.78;;;4.28;;
21215;SDS011;10765;50.954;5.322;2023-06-19T13:59:20;4.88;;;4.40;;
21215;SDS011;10765;50.954;5.322;2023-06-19T14:01:47;5.97;;;4.55;;
21215;SDS011;10765;50.954;5.322;2023-06-19T14:04:14;4.93;;;4.25;;
21215;SDS011;10765;50.954;5.322;2023-06-19T14:06:40;4.88;;;4.40;;
21215;SDS011;10765;50.954;5.322;2023-06-19T14:09:10;4.63;;;4.20;;
21215;SDS011;10765;50.954;5.322;2023-06-19T14:11:38;6.03;;;4.50;;
21215;SDS011;10765;50.954;5.322;2023-06-19T14:14:05;5.93;;;4.60;;
21215;SDS011;10765;50.954;5.322;2023-06-19T14:16:32;4.90;;;4.50;;
21215;SDS011;10765;50.954;5.322;2023-06-19T14:18:59;5.40;;;4.63;;
21215;SDS011;10765;50.954;5.322;2023-06-19T14:21:26;5.50;;;4.40;;
21215;SDS011;10765;50.954;5.322;2023-06-19T14:23:54;24.05;;;6.45;;
21215;SDS011;10765;50.954;5.322;2023-06-19T14:26:22;6.28;;;5.00;;
21215;SDS011;10765;50.954;5.322;2023-06-19T14:28:49;4.85;;;4.22;;
21215;SDS011;10765;50.954;5.322;2023-06-19T14:31:22;4.65;;;4.25;;
21215;SDS011;10765;50.954;5.322;2023-06-19T14:33:49;5.40;;;4.20;;
21215;SDS011;10765;50.954;5.322;2023-06-19T14:36:16;4.90;;;4.50;;
21215;SDS011;10765;50.954;5.322;2023-06-19T14:38:43;5.70;;;4.40;;
21215;SDS011;10765;50.954;5.322;2023-06-19T14:41:09;5.35;;;4.63;;
21215;SDS011;10765;50.954;5.322;2023-06-19T14:43:38;4.43;;;4.05;;
21215;SDS011;10765;50.954;5.322;2023-06-19T14:46:05;5.85;;;4.68;;
21215;SDS011;10765;50.954;5.322;2023-06-19T14:48:31;4.68;;;4.22;;
21215;SDS011;10765;50.954;5.322;2023-06-19T14:50:58;6.18;;;3.85;;